Wetterdaten: November 2008
Datum Temp Feuchte Luftdruck Regen Wind Richtung Sonnenschein UV Solar Windben
01.11.2008 5,5 C 95 % 1009,7 hPa 0,6 l/m 6,1 km/h N-NO 0,08 h 0,7 UV-I 84 W/m 15,3 km/h
02.11.2008 7,3 C 91 % 1017,0 hPa 0,0 l/m 1,6 km/h S-SO 3,90 h 0,8 UV-I 153 W/m 5,2 km/h
03.11.2008 8,3 C 95 % 1015,2 hPa 0,0 l/m 1,9 km/h S-SO 0,08 h 0,6 UV-I 48 W/m 6,8 km/h
04.11.2008 7,1 C 96 % 1019,4 hPa 0,0 l/m 3,3 km/h S 3,75 h 0,8 UV-I 152 W/m 4,4 km/h
05.11.2008 8,6 C 96 % 1014,8 hPa 0,4 l/m 3,6 km/h NO 0,00 h 0,5 UV-I 36 W/m 9,6 km/h
06.11.2008 9,3 C 92 % 1015,7 hPa 0,0 l/m 1,4 km/h O-SO 0,00 h 0,6 UV-I 78 W/m 3,6 km/h
07.11.2008 7,9 C 93 % 1015,2 hPa 0,0 l/m 4,9 km/h S 0,67 h 0,5 UV-I 73 W/m 8,1 km/h
08.11.2008 7,1 C 92 % 1019,6 hPa 0,2 l/m 6,5 km/h S 1,42 h 0,7 UV-I 91 W/m 10,4 km/h
09.11.2008 6,2 C 91 % 1017,0 hPa 2,6 l/m 12,2 km/h S 0,25 h 0,5 UV-I 66 W/m 18,9 km/h
10.11.2008 12,3 C 82 % 1012,3 hPa 2,8 l/m 21,8 km/h S 0,17 h 0,6 UV-I 64 W/m 37,4 km/h
11.11.2008 9,1 C 82 % 1009,8 hPa 4,6 l/m 16,0 km/h S 1,83 h 0,7 UV-I 92 W/m 25,4 km/h
12.11.2008 6,7 C 85 % 1017,3 hPa 0,0 l/m 5,8 km/h S 3,17 h 0,7 UV-I 123 W/m 14,5 km/h
13.11.2008 4,7 C 92 % 1025,0 hPa 0,0 l/m 3,3 km/h S 0,50 h 0,6 UV-I 68 W/m 7,2 km/h
14.11.2008 6,5 C 95 % 1025,4 hPa 1,6 l/m 5,9 km/h S 0,00 h 0,5 UV-I 45 W/m 12,5 km/h
15.11.2008 8,5 C 97 % 1024,9 hPa 2,6 l/m 12,5 km/h S-SW 0,00 h 0,0 UV-I 26 W/m 28,5 km/h
16.11.2008 5,9 C 93 % 1025,8 hPa 2,6 l/m 7,6 km/h NW 0,00 h 0,6 UV-I 48 W/m 10,1 km/h
17.11.2008 3,2 C 95 % 1027,9 hPa 0,2 l/m 1,6 km/h S 0,75 h 0,6 UV-I 85 W/m 4,0 km/h
18.11.2008 5,1 C 96 % 1012,8 hPa 5,8 l/m 9,8 km/h S 0,08 h 0,5 UV-I 44 W/m 22,9 km/h
19.11.2008 6,3 C 94 % 1014,4 hPa 0,2 l/m 13,4 km/h W 0,00 h 0,5 UV-I 41 W/m 31,0 km/h
20.11.2008 5,5 C 94 % 1006,8 hPa 16,4 l/m 11,4 km/h W 0,00 h 0,0 UV-I 27 W/m 23,7 km/h
21.11.2008 0,9 C 95 % 999,5 hPa 9,2 l/m 9,5 km/h N-NW 0,00 h 0,0 UV-I 37 W/m 20,5 km/h
22.11.2008 -0,9 C 97 % 1003,9 hPa 0,0 l/m 8,3 km/h N-NW 0,08 h 0,0 UV-I 40 W/m 22,1 km/h
23.11.2008 -1,0 C 94 % 996,1 hPa 0,0 l/m 15,3 km/h S-SO 0,08 h 0,5 UV-I 49 W/m 24,1 km/h
24.11.2008 -2,0 C 96 % 996,8 hPa 0,0 l/m 2,5 km/h S-SO 0,00 h 0,0 UV-I 16 W/m 8,0 km/h
25.11.2008 -0,3 C 98 % 1014,9 hPa 0,2 l/m 2,7 km/h W 0,00 h 0,0 UV-I 18 W/m 6,8 km/h
26.11.2008 2,4 C 96 % 1023,9 hPa 12,8 l/m 5,7 km/h SW 0,00 h 0,5 UV-I 57 W/m 13,7 km/h
27.11.2008 2,7 C 97 % 1016,7 hPa 4,0 l/m 8,1 km/h S 0,17 h 0,5 UV-I 50 W/m 14,5 km/h
28.11.2008 0,1 C 90 % 1002,7 hPa 0,0 l/m 5,1 km/h S-SO 2,25 h 0,6 UV-I 102 W/m 6,0 km/h
29.11.2008 0,1 C 95 % 996,7 hPa 1,2 l/m 4,0 km/h S 0,00 h 0,5 UV-I 48 W/m 6,8 km/h
30.11.2008 1,1 C 92 % 997,1 hPa 1,4 l/m 10,7 km/h S-SO 1,92 h 0,5 UV-I 85 W/m 16,9 km/h
Min-Datum 24.11.08 12.11.08 24.11.08 19 Tage 01.11.08 - - - - 01.11.08
Min-Zeit 18:30 12:55 03:05 - 01:50 - - - - 01:50
Minimum -5,7 C 72 % 985,9 hPa - 0,0 km/h - - - - 0,0 km/h
Max-Datum 11.11.08 03.11.08 17.11.08 20.11.08 11.11.08 - 02.11.08 02.11.08 04.11.08 10.11.08
Max-Zeit 02:59 10:05 08:50 16:50 05:55 - 15:15 11:55 12:00 07:25
Maximum 14,2 C 100 % 1032,4 hPa 16,4 l/m 34,4 km/h
S
- 3,82 h 1,3 UV-I 485 W/m 56,3 km/h
S
Durchschnitt 4,8 C 93 % 1013,1 hPa #69,4 l/m 7,4 km/h S #21:09 h 0,6 UV-I 65 W/m 14,6 km/h

Durchschnitt Minimum Temp.2,3 C
Durchschnitt Maximum Temp.7,1 C